createdAt,value
2023-02-12T00:00:12.395Z,24.14
2023-02-12T00:01:12.399Z,24.14
2023-02-12T00:02:12.442Z,24.14
2023-02-12T00:03:12.416Z,24.14
2023-02-12T00:05:12.429Z,24.13
2023-02-12T00:06:14.817Z,24.12
2023-02-12T00:07:12.426Z,24.13
2023-02-12T00:08:12.410Z,24.12
2023-02-12T00:09:12.442Z,24.12
2023-02-12T00:10:12.409Z,24.13
2023-02-12T00:11:12.415Z,24.12
2023-02-12T00:12:12.431Z,24.11
2023-02-12T00:14:12.429Z,24.11
2023-02-12T00:15:12.420Z,24.11
2023-02-12T00:16:12.485Z,24.11
2023-02-12T00:17:12.435Z,24.11
2023-02-12T00:18:12.457Z,24.11
2023-02-12T00:19:12.466Z,24.11
2023-02-12T00:20:12.448Z,24.10
2023-02-12T00:21:12.459Z,24.10
2023-02-12T00:22:12.477Z,24.10
2023-02-12T00:23:12.455Z,24.09
2023-02-12T00:24:12.511Z,24.09
2023-02-12T00:25:12.475Z,24.09
2023-02-12T00:26:12.491Z,24.09
2023-02-12T00:27:12.514Z,24.08
2023-02-12T00:28:12.525Z,24.08
2023-02-12T00:29:12.484Z,24.08
2023-02-12T00:30:12.500Z,24.07
2023-02-12T00:31:12.669Z,24.06
2023-02-12T00:32:12.526Z,24.07
2023-02-12T00:33:12.499Z,24.06
2023-02-12T00:34:12.500Z,24.05
2023-02-12T00:35:12.510Z,24.06
2023-02-12T00:36:12.503Z,24.07
2023-02-12T00:37:12.512Z,24.09
2023-02-12T00:38:12.502Z,24.10
2023-02-12T00:39:12.540Z,24.10
2023-02-12T00:40:12.549Z,24.09
2023-02-12T00:41:12.519Z,24.10
2023-02-12T00:42:12.502Z,24.10
2023-02-12T00:43:12.514Z,24.10
2023-02-12T00:44:12.521Z,24.11
2023-02-12T00:45:12.536Z,24.10
2023-02-12T00:46:12.602Z,24.10
2023-02-12T00:47:12.522Z,24.11
2023-02-12T00:48:12.536Z,24.11
2023-02-12T00:49:12.524Z,24.11
2023-02-12T00:50:12.540Z,24.11
2023-02-12T00:51:12.562Z,24.11
2023-02-12T00:52:12.565Z,24.10
2023-02-12T00:53:12.556Z,24.11
2023-02-12T00:54:12.570Z,24.10
2023-02-12T00:55:12.554Z,24.10
2023-02-12T00:56:12.570Z,24.10
2023-02-12T00:57:12.583Z,24.10
2023-02-12T00:58:12.578Z,24.10
2023-02-12T00:59:12.567Z,24.10
2023-02-12T01:00:12.574Z,24.09
2023-02-12T01:01:12.629Z,24.09
2023-02-12T01:02:12.614Z,24.10
2023-02-12T01:03:12.627Z,24.09
2023-02-12T01:04:12.581Z,24.09
2023-02-12T01:05:12.641Z,24.09
2023-02-12T01:06:12.611Z,24.09
2023-02-12T01:07:12.622Z,24.09
2023-02-12T01:08:12.586Z,24.10
2023-02-12T01:09:12.582Z,24.10
2023-02-12T01:10:12.623Z,24.11
2023-02-12T01:11:12.619Z,24.10
2023-02-12T01:12:12.631Z,24.09
2023-02-12T01:13:12.600Z,24.09
2023-02-12T01:14:12.597Z,24.10
2023-02-12T03:55:13.944Z,22.93
2023-02-12T04:35:13.929Z,22.77
2023-02-12T04:36:13.941Z,22.77
2023-02-12T04:37:13.945Z,22.76
2023-02-12T04:38:13.974Z,22.75
2023-02-12T04:39:13.976Z,22.74
2023-02-12T04:40:13.992Z,22.73
2023-02-12T04:41:14.007Z,22.74
2023-02-12T04:42:14.081Z,22.73
2023-02-12T04:43:14.019Z,22.71
2023-02-12T04:44:14.082Z,22.71
2023-02-12T04:45:14.050Z,22.71
2023-02-12T04:46:14.099Z,22.70
2023-02-12T04:47:14.135Z,22.71
2023-02-12T04:48:14.110Z,22.72
2023-02-12T04:49:14.142Z,22.72
2023-02-12T04:50:14.138Z,22.72
2023-02-12T04:51:14.193Z,22.73
2023-02-12T04:52:14.202Z,22.74
2023-02-12T04:53:14.205Z,22.73
2023-02-12T04:54:14.202Z,22.71
2023-02-12T04:55:14.243Z,22.72
2023-02-12T04:56:14.239Z,22.70
2023-02-12T04:57:14.247Z,22.70
2023-02-12T04:58:14.273Z,22.70
2023-02-12T04:59:14.292Z,22.71
2023-02-12T05:00:14.315Z,22.69
2023-02-12T05:01:14.328Z,22.69
2023-02-12T05:02:14.335Z,22.69
2023-02-12T05:03:14.334Z,22.68
2023-02-12T05:04:14.398Z,22.68
2023-02-12T05:05:14.398Z,22.69
2023-02-12T05:06:14.388Z,22.69
2023-02-12T05:07:14.412Z,22.68
2023-02-12T05:08:14.435Z,22.67
2023-02-12T05:09:14.454Z,22.68
2023-02-12T05:10:14.472Z,22.69
2023-02-12T05:11:14.474Z,22.68
2023-02-12T05:12:14.511Z,22.67
2023-02-12T05:13:15.474Z,22.67
2023-02-12T05:14:14.543Z,22.66
2023-02-12T05:15:14.546Z,22.65
2023-02-12T05:16:14.590Z,22.65
2023-02-12T05:17:14.582Z,22.65
2023-02-12T05:18:14.627Z,22.66
2023-02-12T05:19:14.616Z,22.65
2023-02-12T05:20:14.617Z,22.63
2023-02-12T05:21:14.655Z,22.64
2023-02-12T05:22:14.665Z,22.64
2023-02-12T05:23:14.656Z,22.62
2023-02-12T05:24:14.667Z,22.62
2023-02-12T05:25:15.501Z,22.61
2023-02-12T05:26:14.721Z,22.61
2023-02-12T05:27:14.774Z,22.62
2023-02-12T05:28:14.780Z,22.62
2023-02-12T05:29:14.747Z,22.63
2023-02-12T05:30:14.789Z,22.62
2023-02-12T05:31:14.938Z,22.63
2023-02-12T05:32:14.891Z,22.62
2023-02-12T05:33:14.819Z,22.62
2023-02-12T05:34:14.833Z,22.62
2023-02-12T05:35:14.842Z,22.62
2023-02-12T05:36:14.869Z,22.61
2023-02-12T05:37:14.918Z,22.60
2023-02-12T05:38:14.933Z,22.61
2023-02-12T05:39:14.916Z,22.61
2023-02-12T05:40:14.932Z,22.61
2023-02-12T05:41:14.963Z,22.62
2023-02-12T05:42:14.960Z,22.61
2023-02-12T05:43:14.967Z,22.61
2023-02-12T05:44:15.007Z,22.60
2023-02-12T05:45:15.000Z,22.59
2023-02-12T05:46:15.060Z,22.60
2023-02-12T05:47:15.040Z,22.61
2023-02-12T05:48:15.052Z,22.62
2023-02-12T05:49:15.079Z,22.62
2023-02-12T05:50:15.108Z,22.62
2023-02-12T05:51:15.120Z,22.60
2023-02-12T05:52:15.147Z,22.59
2023-02-12T05:53:15.150Z,22.59
2023-02-12T05:54:15.159Z,22.59
2023-02-12T05:55:15.202Z,22.60
2023-02-12T05:56:15.210Z,22.60
2023-02-12T05:57:15.224Z,22.60
2023-02-12T05:58:16.190Z,22.59
2023-02-12T05:59:15.242Z,22.58
2023-02-12T06:00:15.260Z,22.58
2023-02-12T06:01:15.269Z,22.57
2023-02-12T06:02:15.348Z,22.58
2023-02-12T06:03:15.314Z,22.59
2023-02-12T06:04:15.446Z,22.59
2023-02-12T06:05:15.369Z,22.59
2023-02-12T06:06:15.382Z,22.57
2023-02-12T06:07:15.416Z,22.58
2023-02-12T06:08:15.423Z,22.58
2023-02-12T06:09:15.435Z,22.57
2023-02-12T06:10:15.500Z,22.57
2023-02-12T06:11:15.493Z,22.57
2023-02-12T06:12:15.502Z,22.57
2023-02-12T06:13:15.558Z,22.58
2023-02-12T06:14:15.592Z,22.59
2023-02-12T06:15:15.546Z,22.60
2023-02-12T06:16:15.638Z,22.59
2023-02-12T06:17:15.578Z,22.58
2023-02-12T06:18:15.610Z,22.57
2023-02-12T06:19:15.598Z,22.56
2023-02-12T06:20:15.646Z,22.53
2023-02-12T06:21:15.642Z,22.53
2023-02-12T06:22:15.650Z,22.53
2023-02-12T06:23:15.688Z,22.52
2023-02-12T06:24:15.680Z,22.52
2023-02-12T06:25:15.705Z,22.53
2023-02-12T06:26:15.706Z,22.54
2023-02-12T06:27:15.731Z,22.54
2023-02-12T06:28:15.809Z,22.55
2023-02-12T06:29:15.762Z,22.55
2023-02-12T06:30:15.810Z,22.55
2023-02-12T06:31:15.876Z,22.55
2023-02-12T06:32:15.877Z,22.54
2023-02-12T06:33:15.842Z,22.53
2023-02-12T06:34:15.870Z,22.54
2023-02-12T06:35:15.885Z,22.53
2023-02-12T06:36:15.881Z,22.54
2023-02-12T06:37:15.914Z,22.54
2023-02-12T06:38:15.920Z,22.55
2023-02-12T06:39:15.954Z,22.54
2023-02-12T06:40:15.955Z,22.54
2023-02-12T06:41:15.990Z,22.55
2023-02-12T06:42:15.991Z,22.55
2023-02-12T06:43:16.000Z,22.54
2023-02-12T07:34:16.903Z,22.54
2023-02-12T07:35:16.909Z,22.53
2023-02-12T07:36:16.957Z,22.53
2023-02-12T07:37:16.937Z,22.52
2023-02-12T07:39:16.979Z,22.51
2023-02-12T07:40:17.005Z,22.51
2023-02-12T07:41:17.005Z,22.51
2023-02-12T07:42:17.012Z,22.52
2023-02-12T07:43:17.027Z,22.52
2023-02-12T07:44:17.060Z,22.53
2023-02-12T07:45:17.070Z,22.54
2023-02-12T07:46:17.225Z,22.53
2023-02-12T07:47:17.088Z,22.53
2023-02-12T07:48:17.106Z,22.53
2023-02-12T07:49:17.136Z,22.53
2023-02-12T07:50:17.152Z,22.52
2023-02-12T07:51:17.144Z,22.53
2023-02-12T07:52:17.166Z,22.54
2023-02-12T07:53:17.191Z,22.54
2023-02-12T07:54:17.545Z,22.56
2023-02-12T07:55:17.233Z,22.55
2023-02-12T07:56:17.252Z,22.53
2023-02-12T07:57:17.245Z,22.54
2023-02-12T07:58:17.264Z,22.53
2023-02-12T07:59:17.269Z,22.55
2023-02-12T08:00:17.303Z,22.55
2023-02-12T08:01:17.308Z,22.55
2023-02-12T08:02:17.358Z,22.56
2023-02-12T08:03:17.350Z,22.56
2023-02-12T08:04:17.396Z,22.55
2023-02-12T08:05:17.378Z,22.56
2023-02-12T08:06:17.390Z,22.55
2023-02-12T08:07:17.380Z,22.55
2023-02-12T08:08:17.417Z,22.55
2023-02-12T08:09:17.886Z,22.57
2023-02-12T08:10:17.433Z,22.60
2023-02-12T08:11:17.450Z,22.64
2023-02-12T08:12:17.537Z,22.67
2023-02-12T08:13:17.494Z,22.71
2023-02-12T08:14:17.510Z,22.76
2023-02-12T08:15:17.531Z,22.79
2023-02-12T08:16:17.608Z,22.83
2023-02-12T08:17:17.562Z,22.86
2023-02-12T08:18:17.537Z,22.90
2023-02-12T08:19:21.148Z,22.92
2023-02-12T08:20:18.642Z,22.95
2023-02-12T08:21:17.578Z,22.98
2023-02-12T08:22:17.613Z,23.01
2023-02-12T08:23:17.620Z,23.02
2023-02-12T08:24:17.647Z,23.05
2023-02-12T08:25:17.653Z,23.07
2023-02-12T08:26:17.665Z,23.08
2023-02-12T08:27:17.704Z,23.10
2023-02-12T08:28:17.704Z,23.11
2023-02-12T08:29:17.675Z,23.14
2023-02-12T08:30:17.701Z,23.15
2023-02-12T08:31:17.826Z,23.17
2023-02-12T08:32:17.747Z,23.18
2023-02-12T08:33:17.716Z,23.18
2023-02-12T08:34:17.724Z,23.20
2023-02-12T08:35:17.750Z,23.21
2023-02-12T08:36:17.788Z,23.22
2023-02-12T08:37:17.778Z,23.24
2023-02-12T08:38:17.778Z,23.25
2023-02-12T08:39:17.787Z,23.24
2023-02-12T08:40:17.784Z,23.26
2023-02-12T08:41:19.857Z,23.26
2023-02-12T08:42:17.794Z,23.27
2023-02-12T08:43:17.797Z,23.28
2023-02-12T08:44:17.871Z,23.30
2023-02-12T08:47:05.846Z,23.26
2023-02-12T08:48:05.833Z,23.30
2023-02-12T08:49:05.818Z,23.32
2023-02-12T08:50:05.809Z,23.35
2023-02-12T08:51:05.820Z,23.36
2023-02-12T08:52:05.818Z,23.37
2023-02-12T08:53:05.796Z,23.38
2023-02-12T08:54:05.799Z,23.40
2023-02-12T08:55:05.791Z,23.42
2023-02-12T08:56:05.748Z,23.42
2023-02-12T08:57:05.772Z,23.44
2023-02-12T08:58:05.720Z,23.45
2023-02-12T08:59:05.728Z,23.45
2023-02-12T09:00:05.763Z,23.46
2023-02-12T09:01:05.743Z,23.48
2023-02-12T09:02:05.711Z,23.50
2023-02-12T09:03:05.700Z,23.50
2023-02-12T09:04:05.697Z,23.51
2023-02-12T09:05:05.706Z,23.52
2023-02-12T09:06:05.688Z,23.53
2023-02-12T09:07:05.686Z,23.52
2023-02-12T09:08:05.636Z,23.54
2023-02-12T09:09:05.624Z,23.54
2023-02-12T09:10:05.638Z,23.54
2023-02-12T09:11:05.612Z,23.54
2023-02-12T09:12:05.616Z,23.54
2023-02-12T09:13:05.576Z,23.55
2023-02-12T09:14:05.593Z,23.56
2023-02-12T09:15:05.554Z,23.57
2023-02-12T09:16:05.543Z,23.57
2023-02-12T09:17:05.655Z,23.58
2023-02-12T09:18:05.524Z,23.58
2023-02-12T09:19:05.504Z,23.59
2023-02-12T09:20:05.496Z,23.60
2023-02-12T09:21:05.495Z,23.61
2023-02-12T09:22:05.475Z,23.61
2023-02-12T09:23:05.452Z,23.62
2023-02-12T09:24:05.456Z,23.63
2023-02-12T09:25:05.433Z,23.64
2023-02-12T09:26:05.429Z,23.65
2023-02-12T09:27:05.435Z,23.66
2023-02-12T09:28:06.062Z,23.66
2023-02-12T09:29:05.408Z,23.69
2023-02-12T09:30:05.385Z,23.70
2023-02-12T09:31:05.470Z,23.71
2023-02-12T09:32:05.355Z,23.72
2023-02-12T09:33:05.350Z,23.74
2023-02-12T09:34:05.317Z,23.74
2023-02-12T09:35:05.284Z,23.76
2023-02-12T09:36:05.285Z,23.76
2023-02-12T09:37:05.290Z,23.78
2023-02-12T09:38:05.248Z,23.80
2023-02-12T09:39:05.255Z,23.81
2023-02-12T09:40:05.214Z,23.82
2023-02-12T09:41:05.222Z,23.85
2023-02-12T09:42:05.193Z,23.86
2023-02-12T09:43:05.200Z,23.87
2023-02-12T09:44:05.149Z,23.89
2023-02-12T09:45:05.125Z,23.91
2023-02-12T09:46:05.186Z,23.93
2023-02-12T09:47:05.105Z,23.95
2023-02-12T09:48:05.068Z,23.97
2023-02-12T09:49:05.057Z,23.99
2023-02-12T09:50:05.066Z,24.01
2023-02-12T09:51:05.052Z,24.04
2023-02-12T09:52:05.007Z,24.06
2023-02-12T09:53:04.995Z,24.09
2023-02-12T09:54:05.003Z,24.10
2023-02-12T09:55:04.972Z,24.12
2023-02-12T09:56:04.972Z,24.13
2023-02-12T09:57:04.953Z,24.15
2023-02-12T09:58:04.939Z,24.17
2023-02-12T09:59:04.903Z,24.18
2023-02-12T10:00:04.916Z,24.19
2023-02-12T10:01:04.900Z,24.21
2023-02-12T10:02:04.887Z,24.22
2023-02-12T10:03:05.831Z,24.23
2023-02-12T10:04:04.868Z,24.26
2023-02-12T10:05:04.918Z,24.26
2023-02-12T10:06:04.786Z,24.27
2023-02-12T10:07:04.755Z,24.27
2023-02-12T10:08:04.799Z,24.28
2023-02-12T10:09:04.725Z,24.28
2023-02-12T10:10:06.979Z,24.29
2023-02-12T10:11:04.669Z,24.28
2023-02-12T10:12:04.655Z,24.29
2023-02-12T10:13:04.627Z,24.30
2023-02-12T10:14:04.598Z,24.30
2023-02-12T10:15:04.598Z,24.31
2023-02-12T10:16:04.676Z,24.32
2023-02-12T10:17:04.536Z,24.31
2023-02-12T10:18:05.479Z,24.32
2023-02-12T10:19:04.497Z,24.32
2023-02-12T10:20:04.468Z,24.32
2023-02-12T10:21:04.455Z,24.33
2023-02-12T10:22:04.438Z,24.33
2023-02-12T10:23:04.440Z,24.33
2023-02-12T10:24:04.379Z,24.33
2023-02-12T10:25:04.351Z,24.33
2023-02-12T10:26:04.337Z,24.34
2023-02-12T10:27:04.319Z,24.34
2023-02-12T10:28:05.130Z,24.33
2023-02-12T10:29:04.275Z,24.35
2023-02-12T10:30:04.242Z,24.35
2023-02-12T10:31:04.289Z,24.35
2023-02-12T10:32:04.260Z,24.36
2023-02-12T10:33:04.181Z,24.37
2023-02-12T10:34:04.145Z,24.36
2023-02-12T10:35:04.108Z,24.36
2023-02-12T10:36:04.085Z,24.36
2023-02-12T10:37:04.080Z,24.36
2023-02-12T10:38:04.048Z,24.37
2023-02-12T10:39:04.052Z,24.38
2023-02-12T10:40:03.994Z,24.39
2023-02-12T10:41:03.978Z,24.39
2023-02-12T10:42:03.957Z,24.39
2023-02-12T10:43:03.963Z,24.39
2023-02-12T11:09:04.053Z,24.47
2023-02-12T11:40:04.574Z,24.46
2023-02-12T12:36:01.329Z,24.45
2023-02-12T12:37:02.084Z,24.46
2023-02-12T12:38:01.278Z,24.45
2023-02-12T12:39:01.247Z,24.45
2023-02-12T12:40:01.254Z,24.46
2023-02-12T12:41:01.206Z,24.46
2023-02-12T12:42:01.167Z,24.45
2023-02-12T12:43:01.165Z,24.46
2023-02-12T12:44:01.146Z,24.45
2023-02-12T12:45:01.085Z,24.45
2023-02-12T12:46:01.101Z,24.46
2023-02-12T12:47:01.022Z,24.47
2023-02-12T12:48:01.013Z,24.47
2023-02-12T12:49:01.011Z,24.46
2023-02-12T12:50:00.966Z,24.47
2023-02-12T12:51:00.943Z,24.48
2023-02-12T12:52:00.922Z,24.49
2023-02-12T12:53:00.893Z,24.49
2023-02-12T12:54:00.900Z,24.49
2023-02-12T12:55:00.833Z,24.49
2023-02-12T12:56:00.846Z,24.49
2023-02-12T12:57:00.801Z,24.50
2023-02-12T12:58:00.777Z,24.50
2023-02-12T12:59:00.769Z,24.51
2023-02-12T13:00:00.732Z,24.51
2023-02-12T13:01:00.715Z,24.52
2023-02-12T13:02:00.707Z,24.52
2023-02-12T13:03:00.638Z,24.51
2023-02-12T13:04:00.623Z,24.52
2023-02-12T13:05:00.593Z,24.52
2023-02-12T13:06:00.556Z,24.52
2023-02-12T13:07:00.545Z,24.51
2023-02-12T13:08:00.510Z,24.52
2023-02-12T13:09:00.482Z,24.53
2023-02-12T13:10:00.460Z,24.52
2023-02-12T13:11:00.453Z,24.52
2023-02-12T13:12:00.418Z,24.52
2023-02-12T13:13:00.393Z,24.52
2023-02-12T13:14:00.376Z,24.52
2023-02-12T13:15:00.350Z,24.52
2023-02-12T13:16:00.323Z,24.52
2023-02-12T13:17:00.283Z,24.52
2023-02-12T13:18:00.272Z,24.52
2023-02-12T13:19:00.243Z,24.52
2023-02-12T13:20:00.214Z,24.53
2023-02-12T13:21:00.233Z,24.53
2023-02-12T13:22:00.177Z,24.53
2023-02-12T13:23:00.131Z,24.53
2023-02-12T13:24:00.131Z,24.53
2023-02-12T13:25:00.134Z,24.53
2023-02-12T13:26:00.080Z,24.54
2023-02-12T13:27:00.043Z,24.53
2023-02-12T13:28:00.108Z,24.53
2023-02-12T13:28:59.992Z,24.53
2023-02-12T13:29:59.989Z,24.54
2023-02-12T13:31:00.043Z,24.53
2023-02-12T13:32:00.024Z,24.53
2023-02-12T13:32:59.874Z,24.53
2023-02-12T13:33:59.865Z,24.53
2023-02-12T13:35:00.163Z,24.53
2023-02-12T13:35:59.803Z,24.53
2023-02-12T13:36:59.781Z,24.53
2023-02-12T13:37:59.772Z,24.52
2023-02-12T13:38:59.757Z,24.52
2023-02-12T13:39:59.744Z,24.53
2023-02-12T13:40:59.686Z,24.53
2023-02-12T13:41:59.678Z,24.53
2023-02-12T13:42:59.649Z,24.53
2023-02-12T13:43:59.617Z,24.53
2023-02-12T13:44:59.594Z,24.53
2023-02-12T13:45:59.718Z,24.53
2023-02-12T13:46:59.538Z,24.55
2023-02-12T13:47:59.508Z,24.54
2023-02-12T13:48:59.596Z,24.54
2023-02-12T13:49:59.510Z,24.54
2023-02-12T13:51:01.274Z,24.54
2023-02-12T13:51:59.439Z,24.55
2023-02-12T13:52:59.413Z,24.54
2023-02-12T13:53:59.396Z,24.54
2023-02-12T13:54:59.351Z,24.55
2023-02-12T13:55:59.326Z,24.54
2023-02-12T13:56:59.336Z,24.55
2023-02-12T13:57:59.299Z,24.54
2023-02-12T13:59:00.148Z,24.55
2023-02-12T13:59:59.279Z,24.55
2023-02-12T14:00:59.273Z,24.54
2023-02-12T14:02:00.149Z,24.54
2023-02-12T14:03:00.122Z,24.54
2023-02-12T14:03:59.132Z,24.54
2023-02-12T14:04:59.099Z,24.54
2023-02-12T14:05:59.092Z,24.53
2023-02-12T14:07:01.034Z,24.54
2023-02-12T14:07:59.032Z,24.53
2023-02-12T14:08:59.009Z,24.54
2023-02-12T14:09:58.970Z,24.54
2023-02-12T14:10:58.971Z,24.53
2023-02-12T14:11:59.625Z,24.54
2023-02-12T14:12:58.921Z,24.54
2023-02-12T14:13:58.913Z,24.54
2023-02-12T14:14:58.869Z,24.54
2023-02-12T14:15:59.380Z,24.54
2023-02-12T14:16:58.808Z,24.53
2023-02-12T14:17:58.835Z,24.54
2023-02-12T14:18:58.781Z,24.53
2023-02-12T14:19:58.743Z,24.53
2023-02-12T14:20:58.715Z,24.54
2023-02-12T14:21:58.720Z,24.53
2023-02-12T14:22:58.689Z,24.53
2023-02-12T14:23:58.676Z,24.53
2023-02-12T14:24:58.645Z,24.53
2023-02-12T14:25:58.787Z,24.52
2023-02-12T14:26:58.578Z,24.52
2023-02-12T14:27:58.629Z,24.52
2023-02-12T14:28:58.538Z,24.52
2023-02-12T14:29:58.522Z,24.53
2023-02-12T14:30:58.599Z,24.53
2023-02-12T14:31:58.616Z,24.52
2023-02-12T14:32:58.463Z,24.52
2023-02-12T14:33:58.412Z,24.51
2023-02-12T14:34:58.392Z,24.51
2023-02-12T14:35:58.624Z,24.51
2023-02-12T14:36:58.329Z,24.50
2023-02-12T14:37:59.311Z,24.50
2023-02-12T14:38:58.289Z,24.50
2023-02-12T14:39:58.267Z,24.50
2023-02-12T14:40:58.252Z,24.50
2023-02-12T14:41:58.225Z,24.49
2023-02-12T14:42:58.173Z,24.49
2023-02-12T14:43:58.209Z,24.49
2023-02-12T14:44:58.132Z,24.49
2023-02-12T14:45:58.601Z,24.48
2023-02-12T14:46:58.077Z,24.48
2023-02-12T14:47:58.067Z,24.48
2023-02-12T14:48:58.043Z,24.48
2023-02-12T14:49:58.004Z,24.48
2023-02-12T14:50:58.042Z,24.48
2023-02-12T14:51:57.985Z,24.47
2023-02-12T14:52:57.934Z,24.47
2023-02-12T14:53:57.935Z,24.47
2023-02-12T14:54:57.906Z,24.46
2023-02-12T14:55:58.206Z,24.45
2023-02-12T14:56:57.849Z,24.46
2023-02-12T14:57:57.819Z,24.45
2023-02-12T14:58:57.791Z,24.45
2023-02-12T14:59:57.756Z,24.45
2023-02-12T15:00:57.764Z,24.44
2023-02-12T15:01:57.740Z,24.44
2023-02-12T15:02:57.683Z,24.44
2023-02-12T15:03:57.658Z,24.44
2023-02-12T15:04:57.683Z,24.44
2023-02-12T15:05:58.003Z,24.44
2023-02-12T15:06:57.601Z,24.43
2023-02-12T15:07:57.579Z,24.43
2023-02-12T15:08:57.551Z,24.43
2023-02-12T15:09:57.554Z,24.43
2023-02-12T15:10:57.498Z,24.42
2023-02-12T15:11:57.526Z,24.41
2023-02-12T15:12:57.468Z,24.41
2023-02-12T15:13:57.445Z,24.41
2023-02-12T15:14:57.422Z,24.40
2023-02-12T15:15:57.427Z,24.40
2023-02-12T15:16:57.650Z,24.41
2023-02-12T15:17:57.365Z,24.40
2023-02-12T15:18:57.312Z,24.40
2023-02-12T15:19:57.317Z,24.40
2023-02-12T15:20:57.278Z,24.39
2023-02-12T15:21:57.273Z,24.39
2023-02-12T15:22:57.237Z,24.37
2023-02-12T15:23:57.202Z,24.38
2023-02-12T15:24:57.174Z,24.39
2023-02-12T15:25:57.611Z,24.39
2023-02-12T15:26:57.138Z,24.39
2023-02-12T15:27:57.089Z,24.38
2023-02-12T15:28:57.087Z,24.37
2023-02-12T15:29:57.066Z,24.37
2023-02-12T15:30:57.115Z,24.36
2023-02-12T15:31:57.284Z,24.35
2023-02-12T15:32:56.987Z,24.35
2023-02-12T15:33:56.965Z,24.34
2023-02-12T15:34:56.924Z,24.35
2023-02-12T15:35:57.339Z,24.33
2023-02-12T15:36:56.912Z,24.34
2023-02-12T15:37:56.860Z,24.33
2023-02-12T15:38:56.863Z,24.33
2023-02-12T15:39:56.825Z,24.33
2023-02-12T15:40:56.800Z,24.33
2023-02-12T15:41:56.765Z,24.33
2023-02-12T15:42:56.757Z,24.33
2023-02-12T15:43:56.751Z,24.31
2023-02-12T15:44:56.751Z,24.31
2023-02-12T15:45:57.050Z,24.32
2023-02-12T15:46:56.702Z,24.32
2023-02-12T15:47:56.659Z,24.32
2023-02-12T15:48:56.655Z,24.30
2023-02-12T15:49:56.643Z,24.31
2023-02-12T15:50:56.604Z,24.30
2023-02-12T15:51:56.600Z,24.30
2023-02-12T15:52:56.539Z,24.30
2023-02-12T15:53:56.541Z,24.30
2023-02-12T15:54:56.520Z,24.29
2023-02-12T15:55:56.864Z,24.27
2023-02-12T15:56:57.715Z,24.28
2023-02-12T15:57:59.282Z,24.28
2023-02-12T15:58:56.500Z,24.27
2023-02-12T15:59:56.446Z,24.27
2023-02-12T16:00:56.382Z,24.27
2023-02-12T16:01:56.462Z,24.26
2023-02-12T16:02:56.355Z,24.26
2023-02-12T16:03:56.396Z,24.26
2023-02-12T16:04:56.345Z,24.25
2023-02-12T16:05:56.642Z,24.25
2023-02-12T16:06:56.288Z,24.25
2023-02-12T16:07:56.257Z,24.24
2023-02-12T16:08:56.231Z,24.23
2023-02-12T16:09:56.205Z,24.23
2023-02-12T16:10:56.200Z,24.23
2023-02-12T16:11:56.181Z,24.23
2023-02-12T16:12:56.179Z,24.22
2023-02-12T16:13:56.148Z,24.23
2023-02-12T16:14:56.148Z,24.23
2023-02-12T16:15:56.430Z,24.23
2023-02-12T16:16:56.071Z,24.23
2023-02-12T16:17:56.055Z,24.22
2023-02-12T16:18:56.052Z,24.22
2023-02-12T16:19:56.014Z,24.23
2023-02-12T16:20:55.990Z,24.22
2023-02-12T16:21:55.968Z,24.22
2023-02-12T16:22:55.957Z,24.22
2023-02-12T16:23:55.947Z,24.22
2023-02-12T16:24:55.929Z,24.22
2023-02-12T16:25:56.198Z,24.23
2023-02-12T16:26:55.871Z,24.22
2023-02-12T16:27:55.873Z,24.23
2023-02-12T16:28:55.843Z,24.21
2023-02-12T16:29:55.810Z,24.22
2023-02-12T16:30:55.829Z,24.21
2023-02-12T16:31:55.830Z,24.21
2023-02-12T16:32:55.772Z,24.22
2023-02-12T16:33:55.742Z,24.21
2023-02-12T16:34:55.718Z,24.21
2023-02-12T16:35:56.104Z,24.21
2023-02-12T16:36:56.704Z,24.19
2023-02-12T16:37:55.675Z,24.19
2023-02-12T16:38:55.643Z,24.19
2023-02-12T16:39:55.639Z,24.19
2023-02-12T16:40:55.658Z,24.19
2023-02-12T16:41:55.621Z,24.18
2023-02-12T16:42:55.557Z,24.18
2023-02-12T16:43:55.530Z,24.17
2023-02-12T16:44:55.512Z,24.17
2023-02-12T16:45:55.872Z,24.17
2023-02-12T16:46:55.515Z,24.18
2023-02-12T16:47:55.736Z,24.16
2023-02-12T16:48:55.439Z,24.17
2023-02-12T16:49:55.391Z,24.17
2023-02-12T16:50:55.373Z,24.17
2023-02-12T16:51:55.350Z,24.16
2023-02-12T16:52:55.344Z,24.16
2023-02-12T16:53:55.318Z,24.16
2023-02-12T16:54:55.300Z,24.16
2023-02-12T16:55:55.726Z,24.17
2023-02-12T16:56:55.276Z,24.16
2023-02-12T16:57:55.243Z,24.16
2023-02-12T16:58:55.241Z,24.15
2023-02-12T16:59:55.182Z,24.15
2023-02-12T17:00:55.208Z,24.15
2023-02-12T17:01:55.168Z,24.15
2023-02-12T17:02:55.137Z,24.15
2023-02-12T17:03:55.118Z,24.14
2023-02-12T17:04:55.800Z,24.15
2023-02-12T17:05:55.291Z,24.13
2023-02-12T17:06:55.060Z,24.15
2023-02-12T17:07:55.029Z,24.14
2023-02-12T17:08:55.052Z,24.14
2023-02-12T17:09:55.017Z,24.14
2023-02-12T17:10:54.988Z,24.14
2023-02-12T17:11:54.954Z,24.15
2023-02-12T17:12:54.931Z,24.16
2023-02-12T17:13:54.946Z,24.15
2023-02-12T17:14:54.904Z,24.15
2023-02-12T17:15:55.335Z,24.14
2023-02-12T17:16:54.919Z,24.15
2023-02-12T17:17:54.867Z,24.14
2023-02-12T17:18:54.878Z,24.14
2023-02-12T17:19:54.830Z,24.14
2023-02-12T17:20:54.819Z,24.14
2023-02-12T17:21:54.782Z,24.12
2023-02-12T17:22:54.763Z,24.13
2023-02-12T17:23:54.737Z,24.13
2023-02-12T17:24:54.791Z,24.13
2023-02-12T17:25:55.040Z,24.12
2023-02-12T17:26:54.731Z,24.12
2023-02-12T17:27:54.680Z,24.13
2023-02-12T17:28:54.660Z,24.13
2023-02-12T17:29:54.633Z,24.13
2023-02-12T17:30:54.801Z,24.13
2023-02-12T17:31:54.639Z,24.13
2023-02-12T17:32:54.576Z,24.12
2023-02-12T17:33:54.754Z,24.12
2023-02-12T17:34:54.568Z,24.12
2023-02-12T17:35:54.545Z,24.12
2023-02-12T17:36:54.514Z,24.11
2023-02-12T17:37:54.483Z,24.11
2023-02-12T17:38:54.486Z,24.11
2023-02-12T17:39:55.212Z,24.11
2023-02-12T17:40:54.663Z,24.11
2023-02-12T17:41:54.397Z,24.10
2023-02-12T17:42:54.426Z,24.09
2023-02-12T17:43:54.384Z,24.10
2023-02-12T17:44:54.347Z,24.10
2023-02-12T17:45:54.450Z,24.10
2023-02-12T17:46:54.319Z,24.10
2023-02-12T17:47:54.294Z,24.11
2023-02-12T17:48:54.265Z,24.11
2023-02-12T17:49:54.230Z,24.11
2023-02-12T17:50:54.514Z,24.10
2023-02-12T17:51:54.263Z,24.10
2023-02-12T17:52:54.168Z,24.10
2023-02-12T17:53:54.187Z,24.10
2023-02-12T17:54:54.143Z,24.10
2023-02-12T17:55:54.128Z,24.10
2023-02-12T17:56:54.127Z,24.09
2023-02-12T17:57:54.094Z,24.10
2023-02-12T17:58:54.258Z,24.10
2023-02-12T17:59:54.036Z,24.10
2023-02-12T18:00:54.037Z,24.10
2023-02-12T18:01:54.016Z,24.09
2023-02-12T18:02:54.018Z,24.09
2023-02-12T18:03:55.124Z,24.09
2023-02-12T18:04:53.957Z,24.09
2023-02-12T18:06:54.083Z,24.10
2023-02-12T21:00:50.942Z,23.98
2023-02-12T21:14:50.742Z,23.98
2023-02-12T21:26:50.558Z,24.00
